createdAt,value
2022-10-04T00:02:31.129Z,5.70
2022-10-04T00:05:05.483Z,7.53
2022-10-04T00:07:38.672Z,7.30
2022-10-04T00:10:18.308Z,6.67
2022-10-04T00:12:50.805Z,7.47
2022-10-04T00:15:23.299Z,7.13
2022-10-04T00:18:05.556Z,7.63
2022-10-04T00:21:04.641Z,6.40
2022-10-04T00:23:47.937Z,8.10
2022-10-04T00:27:09.727Z,7.70
2022-10-04T00:29:40.486Z,7.77
2022-10-04T00:32:27.963Z,6.37
2022-10-04T00:34:56.870Z,6.03
2022-10-04T00:37:28.193Z,5.53
2022-10-04T00:40:04.978Z,5.90
2022-10-04T00:42:52.974Z,5.13
2022-10-04T00:45:32.715Z,5.53
2022-10-04T00:48:31.098Z,5.40
2022-10-04T00:51:07.790Z,6.53
2022-10-04T00:53:49.215Z,6.53
2022-10-04T00:56:25.544Z,5.60
2022-10-04T00:59:30.303Z,4.77
2022-10-04T01:02:01.490Z,5.67
2022-10-04T01:04:36.525Z,5.30
2022-10-04T01:07:06.687Z,6.07
2022-10-04T01:09:51.360Z,5.47
2022-10-04T01:12:33.587Z,6.10
2022-10-04T01:15:07.471Z,5.60
2022-10-04T01:17:35.503Z,5.07
2022-10-04T01:20:04.123Z,5.50
2022-10-04T01:22:41.275Z,5.33
2022-10-04T01:25:09.668Z,5.20
2022-10-04T01:27:42.225Z,5.30
2022-10-04T01:30:12.249Z,5.37
2022-10-04T01:32:41.320Z,5.40
2022-10-04T01:35:11.252Z,5.33
2022-10-04T01:37:41.203Z,4.70
2022-10-04T01:40:10.974Z,4.30
2022-10-04T01:42:44.643Z,4.83
2022-10-04T01:45:22.321Z,3.97
2022-10-04T01:47:55.236Z,4.73
2022-10-04T01:50:29.835Z,4.40
2022-10-04T01:53:07.336Z,4.53
2022-10-04T01:55:38.296Z,4.73
2022-10-04T01:58:12.708Z,5.07
2022-10-04T02:00:47.290Z,4.27
2022-10-04T02:03:19.209Z,4.13
2022-10-04T02:05:53.223Z,4.10
2022-10-04T02:08:28.271Z,4.83
2022-10-04T02:10:57.426Z,4.10
2022-10-04T02:13:29.442Z,4.17
2022-10-04T02:15:58.594Z,4.63
2022-10-04T02:18:28.819Z,4.43
2022-10-04T02:20:57.868Z,4.23
2022-10-04T02:23:28.670Z,4.83
2022-10-04T02:25:56.760Z,5.23
2022-10-04T02:28:24.897Z,4.60
2022-10-04T02:31:14.061Z,5.07
2022-10-04T02:33:43.694Z,4.43
2022-10-04T02:36:13.229Z,4.30
2022-10-04T02:38:46.241Z,4.83
2022-10-04T02:41:23.811Z,4.20
2022-10-04T02:43:56.408Z,4.93
2022-10-04T02:46:29.343Z,4.83
2022-10-04T02:49:00.043Z,5.47
2022-10-04T02:51:34.486Z,4.83
2022-10-04T02:54:11.418Z,5.13
2022-10-04T02:56:40.162Z,4.83
2022-10-04T02:59:09.028Z,4.40
2022-10-04T03:01:52.775Z,5.03
2022-10-04T03:04:24.118Z,5.00
2022-10-04T03:06:53.556Z,4.70
2022-10-04T03:09:29.611Z,5.13
2022-10-04T03:11:59.109Z,4.50
2022-10-04T03:14:29.441Z,4.53
2022-10-04T03:17:00.707Z,5.23
2022-10-04T03:19:31.260Z,5.33
2022-10-04T03:22:03.628Z,4.93
2022-10-04T03:24:36.397Z,5.13
2022-10-04T03:27:08.371Z,5.50
2022-10-04T03:29:41.105Z,4.80
2022-10-04T03:32:09.871Z,5.23
2022-10-04T03:34:39.944Z,4.90
2022-10-04T03:37:12.170Z,4.43
2022-10-04T03:39:44.012Z,4.50
2022-10-04T03:42:16.260Z,4.73
2022-10-04T03:44:46.451Z,4.60
2022-10-04T03:47:18.972Z,4.57
2022-10-04T03:49:50.953Z,4.70
2022-10-04T03:52:23.070Z,4.77
2022-10-04T03:54:54.699Z,4.53
2022-10-04T03:57:22.844Z,4.83
2022-10-04T03:59:51.663Z,5.17
2022-10-04T04:02:27.878Z,4.90
2022-10-04T04:05:06.864Z,4.77
2022-10-04T04:07:40.917Z,4.50
2022-10-04T04:10:19.408Z,5.10
2022-10-04T04:12:51.711Z,4.27
2022-10-04T04:15:19.793Z,4.53
2022-10-04T04:17:49.636Z,4.63
2022-10-04T04:20:23.212Z,4.40
2022-10-04T04:22:59.338Z,5.00
2022-10-04T04:25:32.263Z,4.70
2022-10-04T04:28:13.994Z,5.17
2022-10-04T04:30:48.117Z,5.67
2022-10-04T04:33:27.045Z,4.77
2022-10-04T04:35:57.190Z,5.17
2022-10-04T04:38:26.886Z,4.93
2022-10-04T04:40:57.386Z,5.30
2022-10-04T04:43:27.738Z,5.20
2022-10-04T04:46:22.284Z,5.03
2022-10-04T04:48:49.486Z,5.60
2022-10-04T04:51:21.892Z,5.30
2022-10-04T04:53:51.914Z,5.03
2022-10-04T04:56:24.534Z,5.10
2022-10-04T04:58:54.781Z,4.87
2022-10-04T05:01:26.774Z,5.33
2022-10-04T05:04:02.904Z,4.70
2022-10-04T05:06:32.685Z,5.00
2022-10-04T05:09:00.694Z,4.43
2022-10-04T05:11:32.999Z,5.20
2022-10-04T05:14:05.904Z,4.97
2022-10-04T05:16:40.028Z,5.03
2022-10-04T05:19:14.946Z,6.00
2022-10-04T05:21:46.564Z,5.27
2022-10-04T05:24:22.228Z,5.10
2022-10-04T05:26:53.834Z,5.60
2022-10-04T05:29:26.880Z,6.10
2022-10-04T05:32:03.756Z,7.27
2022-10-04T05:34:39.982Z,5.93
2022-10-04T05:37:30.638Z,6.17
2022-10-04T05:40:13.067Z,5.87
2022-10-04T05:42:45.425Z,5.77
2022-10-04T05:45:18.793Z,5.70
2022-10-04T05:47:48.760Z,6.03
2022-10-04T05:50:20.174Z,6.33
2022-10-04T05:52:51.826Z,6.17
2022-10-04T05:55:28.789Z,6.10
2022-10-04T05:58:19.235Z,6.53
2022-10-04T06:01:13.228Z,5.70
2022-10-04T06:04:09.783Z,5.57
2022-10-04T06:06:42.163Z,6.63
2022-10-04T06:09:21.191Z,6.50
2022-10-04T06:12:01.233Z,6.13
2022-10-04T06:15:03.968Z,6.37
2022-10-04T06:17:47.104Z,6.07
2022-10-04T06:20:56.157Z,6.10
2022-10-04T06:23:27.390Z,6.40
2022-10-04T06:25:59.685Z,6.33
2022-10-04T06:28:32.953Z,6.60
2022-10-04T06:31:25.329Z,5.97
2022-10-04T06:34:09.270Z,6.80
2022-10-04T06:37:00.088Z,7.00
2022-10-04T06:39:41.541Z,6.50
2022-10-04T06:42:42.185Z,7.87
2022-10-04T06:45:23.360Z,8.80
2022-10-04T06:48:09.996Z,8.03
2022-10-04T06:50:46.538Z,8.97
2022-10-04T06:53:25.327Z,8.33
2022-10-04T06:56:10.121Z,9.83
2022-10-04T06:59:17.324Z,10.17
2022-10-04T07:01:51.331Z,8.60
2022-10-04T07:04:45.022Z,9.27
2022-10-04T07:07:35.540Z,8.53
2022-10-04T07:10:31.024Z,8.20
2022-10-04T07:13:14.585Z,7.40
2022-10-04T07:15:48.371Z,7.73
2022-10-04T07:18:23.087Z,7.80
2022-10-04T07:20:59.467Z,7.80
2022-10-04T07:23:32.598Z,8.73
2022-10-04T07:26:05.900Z,11.00
2022-10-04T07:28:58.634Z,12.97
2022-10-04T07:31:29.499Z,13.30
2022-10-04T07:34:01.287Z,11.57
2022-10-04T07:36:40.565Z,10.40
2022-10-04T07:39:14.857Z,10.33
2022-10-04T07:41:49.952Z,10.17
2022-10-04T07:44:26.512Z,20.50
2022-10-04T07:47:00.673Z,21.80
2022-10-04T07:49:28.932Z,17.10
2022-10-04T07:52:26.194Z,13.93
2022-10-04T07:55:03.506Z,9.13
2022-10-04T07:57:40.596Z,8.77
2022-10-04T08:00:17.225Z,8.40
2022-10-04T08:02:57.472Z,11.53
2022-10-04T08:05:30.874Z,10.83
2022-10-04T08:08:26.985Z,10.03
2022-10-04T08:11:12.792Z,9.70
2022-10-04T08:13:52.383Z,8.80
2022-10-04T08:16:35.664Z,9.60
2022-10-04T08:19:21.417Z,10.53
2022-10-04T08:21:56.531Z,8.23
2022-10-04T08:24:33.743Z,9.20
2022-10-04T08:27:26.270Z,10.80
2022-10-04T08:30:12.249Z,9.70
2022-10-04T08:32:55.857Z,10.17
2022-10-04T08:35:34.983Z,10.97
2022-10-04T08:38:28.234Z,8.93
2022-10-04T08:41:46.063Z,8.87
2022-10-04T08:45:03.248Z,8.27
2022-10-04T08:48:08.119Z,8.43
2022-10-04T08:50:56.244Z,7.77
2022-10-04T08:53:53.791Z,7.47
2022-10-04T08:56:34.183Z,6.97
2022-10-04T08:59:34.037Z,6.07
2022-10-04T09:02:23.073Z,5.63
2022-10-04T09:05:14.808Z,5.67
2022-10-04T09:08:17.982Z,5.60
2022-10-04T09:10:59.946Z,6.40
2022-10-04T09:13:44.257Z,5.27
2022-10-04T09:16:24.314Z,5.87
2022-10-04T09:19:14.279Z,5.67
2022-10-04T09:22:01.357Z,5.97
2022-10-04T09:25:19.392Z,5.50
2022-10-04T09:28:21.171Z,5.97
2022-10-04T09:31:20.255Z,4.80
2022-10-04T09:34:10.883Z,4.83
2022-10-04T09:37:03.842Z,5.20
2022-10-04T09:39:55.094Z,4.77
2022-10-04T09:42:47.182Z,4.43
2022-10-04T09:45:51.267Z,4.60
2022-10-04T09:48:28.416Z,4.30
2022-10-04T09:51:34.496Z,4.90
2022-10-04T09:54:45.760Z,4.20
2022-10-04T09:57:29.162Z,4.67
2022-10-04T10:00:11.708Z,4.43
2022-10-04T10:03:24.459Z,3.73
2022-10-04T10:06:21.007Z,4.30
2022-10-04T10:09:06.177Z,4.20
2022-10-04T10:12:07.398Z,4.33
2022-10-04T10:15:04.147Z,3.87
2022-10-04T10:17:41.740Z,3.97
2022-10-04T10:20:35.702Z,4.10
2022-10-04T10:23:36.557Z,4.00
2022-10-04T10:26:29.919Z,3.97
2022-10-04T10:29:33.910Z,4.10
2022-10-04T10:32:17.285Z,4.07
2022-10-04T10:35:19.368Z,4.17
2022-10-04T10:38:04.459Z,4.00
2022-10-04T10:41:05.404Z,3.77
2022-10-04T10:43:54.026Z,3.80
2022-10-04T10:46:32.911Z,3.50
2022-10-04T10:49:27.869Z,3.97
2022-10-04T10:52:44.579Z,3.67
2022-10-04T10:55:29.655Z,3.50
2022-10-04T10:58:35.535Z,3.60
2022-10-04T11:01:25.910Z,3.40
2022-10-04T11:04:21.675Z,3.47
2022-10-04T11:07:23.707Z,3.10
2022-10-04T11:10:17.698Z,3.50
2022-10-04T11:13:21.387Z,3.23
2022-10-04T11:16:19.626Z,2.97
2022-10-04T11:19:23.488Z,3.03
2022-10-04T11:22:27.963Z,2.97
2022-10-04T11:25:19.562Z,3.10
2022-10-04T11:27:57.391Z,3.07
2022-10-04T11:30:29.755Z,2.67
2022-10-04T11:33:29.997Z,2.70
2022-10-04T11:36:33.992Z,2.80
2022-10-04T11:39:26.984Z,2.47
2022-10-04T11:42:00.659Z,2.60
2022-10-04T11:44:55.305Z,2.97
2022-10-04T11:47:39.796Z,2.50
2022-10-04T11:50:26.080Z,2.30
2022-10-04T11:53:30.767Z,2.87
2022-10-04T11:56:21.108Z,2.60
2022-10-04T11:59:11.995Z,2.40
2022-10-04T12:02:22.499Z,2.30
2022-10-04T12:05:12.710Z,1.97
2022-10-04T12:08:02.505Z,2.10
2022-10-04T12:10:35.459Z,2.00
2022-10-04T12:13:25.033Z,2.10
2022-10-04T12:16:41.344Z,2.30
2022-10-04T12:19:50.796Z,2.60
2022-10-04T12:22:54.426Z,2.30
2022-10-04T12:25:54.122Z,2.23
2022-10-04T12:28:48.367Z,1.87
2022-10-04T12:31:27.683Z,2.20
2022-10-04T12:34:06.056Z,1.90
2022-10-04T12:36:52.367Z,2.07
2022-10-04T12:39:35.785Z,1.90
2022-10-04T12:42:17.800Z,2.00
2022-10-04T12:45:00.843Z,1.80
2022-10-04T12:48:55.259Z,2.07
2022-10-04T12:51:44.116Z,1.87
2022-10-04T12:54:28.421Z,1.50
2022-10-04T12:57:07.145Z,1.80
2022-10-04T12:59:49.848Z,2.20
2022-10-04T13:02:35.766Z,2.47
2022-10-04T13:05:12.816Z,1.83
2022-10-04T13:07:54.425Z,1.80
2022-10-04T13:10:44.450Z,2.47
2022-10-04T13:14:03.033Z,1.97
2022-10-04T13:19:42.146Z,1.80
2022-10-04T13:22:51.329Z,1.87
2022-10-04T13:25:24.750Z,1.87
2022-10-04T13:28:01.160Z,1.90
2022-10-04T13:30:37.521Z,1.53
2022-10-04T13:33:24.633Z,1.80
2022-10-04T13:35:59.315Z,1.93
2022-10-04T13:38:57.340Z,1.90
2022-10-04T13:41:39.841Z,1.50
2022-10-04T13:44:27.418Z,1.80
2022-10-04T13:47:12.001Z,1.50
2022-10-04T13:50:00.320Z,1.73
2022-10-04T13:53:16.293Z,1.97
2022-10-04T13:56:18.382Z,1.70
2022-10-04T13:58:49.972Z,1.53
2022-10-04T14:01:50.231Z,1.83
2022-10-04T14:04:39.056Z,1.80
2022-10-04T14:07:36.104Z,1.40
2022-10-04T14:10:44.270Z,1.80
2022-10-04T14:13:55.595Z,1.80
2022-10-04T14:16:45.022Z,1.50
2022-10-04T14:19:47.863Z,2.20
2022-10-04T14:22:45.631Z,1.60
2022-10-04T14:25:53.373Z,1.90
2022-10-04T14:28:58.954Z,1.50
2022-10-04T14:31:52.776Z,1.70
2022-10-04T14:34:45.528Z,1.17
2022-10-04T14:37:54.191Z,4.60
2022-10-04T14:40:51.021Z,1.60
2022-10-04T14:43:57.916Z,1.60
2022-10-04T14:46:36.800Z,1.30
2022-10-04T14:49:15.039Z,1.50
2022-10-04T14:52:04.306Z,1.47
2022-10-04T14:54:42.632Z,1.40
2022-10-04T14:57:20.919Z,1.40
2022-10-04T15:00:04.833Z,1.40
2022-10-04T15:03:13.372Z,1.30
2022-10-04T15:06:10.792Z,1.23
2022-10-04T15:09:10.345Z,1.80
2022-10-04T15:11:53.574Z,1.30
2022-10-04T15:14:42.263Z,1.47
2022-10-04T15:17:12.648Z,1.30
2022-10-04T15:20:08.136Z,1.60
2022-10-04T15:22:43.152Z,1.33
2022-10-04T15:25:40.543Z,1.60
2022-10-04T15:28:27.825Z,1.87
2022-10-04T15:31:03.037Z,1.67
2022-10-04T15:33:40.191Z,1.60
2022-10-04T15:36:32.467Z,1.60
2022-10-04T15:39:07.977Z,1.30
2022-10-04T15:41:46.839Z,1.40
2022-10-04T15:44:47.867Z,1.20
2022-10-04T15:47:24.016Z,1.63
2022-10-04T15:50:01.780Z,1.80
2022-10-04T15:52:57.990Z,1.70
2022-10-04T15:55:49.352Z,1.67
2022-10-04T15:58:50.654Z,1.73
2022-10-04T16:01:41.918Z,1.83
2022-10-04T16:04:32.100Z,1.60
2022-10-04T16:07:11.841Z,1.70
2022-10-04T16:09:46.995Z,2.10
2022-10-04T16:12:23.068Z,2.70
2022-10-04T16:15:19.406Z,1.93
2022-10-04T16:18:05.188Z,4.53
2022-10-04T16:21:16.140Z,4.20
2022-10-04T16:23:45.305Z,3.60
2022-10-04T16:26:34.775Z,6.10
2022-10-04T16:29:18.360Z,4.00
2022-10-04T16:31:54.176Z,3.03
2022-10-04T16:34:42.243Z,2.90
2022-10-04T16:37:36.285Z,2.40
2022-10-04T16:40:21.702Z,2.93
2022-10-04T16:42:56.004Z,3.30
2022-10-04T16:45:50.463Z,2.97
2022-10-04T16:48:35.816Z,5.10
2022-10-04T16:51:40.496Z,5.53
2022-10-04T16:54:31.079Z,4.93
2022-10-04T16:57:19.673Z,5.47
2022-10-04T16:59:54.264Z,5.97
2022-10-04T17:02:41.001Z,5.87
2022-10-04T17:05:37.334Z,6.27
2022-10-04T17:08:25.841Z,5.40
2022-10-04T17:11:36.731Z,6.10
2022-10-04T17:14:22.942Z,5.47
2022-10-04T17:16:57.713Z,5.47
2022-10-04T17:19:34.013Z,4.63
2022-10-04T17:22:20.395Z,5.43
2022-10-04T17:25:03.084Z,5.67
2022-10-04T17:27:53.474Z,5.77
2022-10-04T17:30:23.193Z,7.90
2022-10-04T17:33:21.752Z,7.73
2022-10-04T17:36:14.117Z,6.80
2022-10-04T17:38:53.159Z,5.40
2022-10-04T17:41:34.000Z,4.30
2022-10-04T17:44:24.643Z,3.70
2022-10-04T17:47:02.279Z,3.60
2022-10-04T17:49:58.926Z,3.50
2022-10-04T17:52:52.829Z,4.47
2022-10-04T17:55:28.690Z,4.23
2022-10-04T17:58:03.851Z,4.93
2022-10-04T18:00:52.855Z,4.40
2022-10-04T18:03:28.117Z,3.90
2022-10-04T18:05:59.241Z,3.80
2022-10-04T18:08:41.517Z,3.83
2022-10-04T18:11:20.455Z,4.00
2022-10-04T18:13:52.224Z,3.80
2022-10-04T18:16:27.757Z,3.60
2022-10-04T18:18:57.956Z,3.90
2022-10-04T18:21:29.482Z,3.70
2022-10-04T18:24:00.392Z,3.73
2022-10-04T18:26:30.938Z,3.60
2022-10-04T18:29:01.517Z,4.10
2022-10-04T18:31:38.015Z,4.27
2022-10-04T18:34:28.740Z,4.00
2022-10-04T18:37:06.678Z,4.13
2022-10-04T18:39:46.398Z,4.47
2022-10-04T18:42:23.497Z,4.33
2022-10-04T18:44:59.421Z,6.37
2022-10-04T18:47:35.320Z,9.43
2022-10-04T18:50:15.203Z,9.70
2022-10-04T18:52:55.041Z,9.03
2022-10-04T18:55:34.468Z,7.67
2022-10-04T18:58:32.025Z,5.97
2022-10-04T19:01:35.449Z,6.40
2022-10-04T19:04:12.903Z,8.40
2022-10-04T19:06:47.577Z,8.50
2022-10-04T19:09:25.904Z,8.83
2022-10-04T19:11:58.721Z,11.23
2022-10-04T19:14:36.817Z,10.20
2022-10-04T19:17:16.103Z,7.87
2022-10-04T19:19:54.160Z,8.60
2022-10-04T19:22:33.563Z,6.80
2022-10-04T19:25:18.233Z,6.27
2022-10-04T19:27:50.400Z,5.80
2022-10-04T19:30:21.948Z,6.03
2022-10-04T19:33:13.876Z,5.90
2022-10-04T19:36:03.959Z,4.93
2022-10-04T19:38:44.603Z,8.93
2022-10-04T19:41:18.999Z,8.00
2022-10-04T19:43:55.780Z,7.57
2022-10-04T19:46:37.762Z,7.87
2022-10-04T19:49:19.560Z,7.13
2022-10-04T19:51:53.337Z,8.03
2022-10-04T19:54:31.347Z,8.57
2022-10-04T19:57:04.261Z,10.40
2022-10-04T19:59:40.094Z,9.60
2022-10-04T20:02:10.071Z,9.73
2022-10-04T20:04:39.357Z,9.43
2022-10-04T20:07:19.627Z,7.90
2022-10-04T20:09:56.551Z,7.23
2022-10-04T20:12:36.505Z,7.27
2022-10-04T20:15:27.534Z,6.47
2022-10-04T20:17:56.341Z,6.87
2022-10-04T20:20:57.560Z,6.10
2022-10-04T20:23:57.842Z,6.43
2022-10-04T20:26:54.556Z,6.93
2022-10-04T20:30:01.715Z,7.47
2022-10-04T20:32:55.876Z,6.73
2022-10-04T20:36:06.834Z,5.60
2022-10-04T20:38:46.010Z,5.00
2022-10-04T20:42:02.398Z,5.50
2022-10-04T20:44:55.276Z,7.37
2022-10-04T20:47:42.870Z,7.60
2022-10-04T20:50:23.890Z,6.37
2022-10-04T20:52:54.804Z,7.47
2022-10-04T20:55:27.414Z,6.27
2022-10-04T20:57:57.629Z,5.37
2022-10-04T21:00:33.432Z,5.73
2022-10-04T21:03:18.937Z,5.30
2022-10-04T21:06:00.733Z,5.77
2022-10-04T21:08:29.529Z,6.50
2022-10-04T21:11:19.744Z,5.50
2022-10-04T21:13:53.437Z,6.10
2022-10-04T21:16:40.155Z,6.33
2022-10-04T21:19:47.961Z,8.40
2022-10-04T21:22:37.608Z,8.30
2022-10-04T21:25:41.064Z,8.43
2022-10-04T21:28:32.039Z,9.23
2022-10-04T21:31:02.059Z,8.87
2022-10-04T21:33:32.647Z,10.20
2022-10-04T21:36:00.965Z,8.33
2022-10-04T21:38:29.650Z,8.77
2022-10-04T21:40:57.944Z,8.33
2022-10-04T21:43:25.999Z,7.40
2022-10-04T21:45:53.973Z,7.33
2022-10-04T21:48:23.246Z,7.67
2022-10-04T21:50:54.202Z,7.40
2022-10-04T21:53:22.487Z,7.17
2022-10-04T21:55:50.464Z,7.90
2022-10-04T21:58:18.627Z,7.20
2022-10-04T22:00:46.586Z,7.17
2022-10-04T22:03:14.463Z,7.97
2022-10-04T22:05:42.393Z,7.63
2022-10-04T22:08:11.849Z,7.67
2022-10-04T22:10:40.111Z,7.87
2022-10-04T22:13:08.307Z,8.20
2022-10-04T22:15:36.442Z,8.27
2022-10-04T22:18:04.535Z,7.73
2022-10-04T22:20:33.029Z,7.53
2022-10-04T22:23:02.962Z,8.20
2022-10-04T22:25:32.342Z,8.00
2022-10-04T22:28:01.300Z,7.70
2022-10-04T22:30:31.186Z,8.10
2022-10-04T22:33:02.478Z,8.30
2022-10-04T22:35:34.642Z,8.07
2022-10-04T22:38:02.581Z,6.43
2022-10-04T22:40:32.162Z,7.13
2022-10-04T22:43:00.939Z,6.17
2022-10-04T22:45:33.437Z,6.73
2022-10-04T22:48:10.798Z,6.43
2022-10-04T22:50:40.295Z,6.50
2022-10-04T22:53:13.480Z,6.77
2022-10-04T22:55:42.920Z,6.53
2022-10-04T22:58:14.072Z,6.10
2022-10-04T23:00:42.646Z,5.87
2022-10-04T23:03:23.120Z,6.20
2022-10-04T23:05:51.095Z,5.93
2022-10-04T23:08:19.016Z,6.20
2022-10-04T23:10:48.525Z,5.50
2022-10-04T23:13:17.798Z,5.80
2022-10-04T23:15:47.252Z,6.70
2022-10-04T23:18:16.975Z,11.43
2022-10-04T23:20:45.858Z,11.03
2022-10-04T23:23:18.344Z,8.43
2022-10-04T23:25:47.146Z,7.50
2022-10-04T23:28:18.145Z,7.50
2022-10-04T23:30:49.332Z,6.73
2022-10-04T23:33:19.518Z,5.90
2022-10-04T23:35:48.635Z,6.00
2022-10-04T23:38:18.287Z,6.50
2022-10-04T23:40:46.296Z,6.03
2022-10-04T23:43:21.157Z,5.77
2022-10-04T23:45:49.336Z,5.87
2022-10-04T23:48:22.770Z,5.80
2022-10-04T23:50:52.840Z,6.20
2022-10-04T23:53:26.739Z,5.43
2022-10-04T23:55:55.966Z,5.83
2022-10-04T23:58:28.195Z,5.90
